Terminal Aerodrome Forecast
Issued by NWS

Home | Current Version | Previous Version | Graphics & Text | Print | Product List | Glossary On
Versions: 1 2 3 4 5 6 7 8 9 10 11 12 13 14 15 16 17 18 19
588
FTUS43 KMPX 031733
TAFRNH
TAF
KRNH 031733Z 0318/0418 33012G18KT P6SM FEW080
     FM032000 31011KT P6SM FEW150
     FM040200 28005KT P6SM BKN150
     FM041200 18005KT 6SM -SN BR OVC025
      TEMPO 0413/0417 2SM -SN BR OVC015=

USA.gov is the U.S. government's official web portal to all federal, state and local government web resources and services.